createdAt,value
2022-11-22T00:00:20.216Z,-0.22
2022-11-22T00:01:20.187Z,-0.22
2022-11-22T00:02:20.291Z,-0.19
2022-11-22T00:03:20.191Z,-0.18
2022-11-22T00:04:20.140Z,-0.19
2022-11-22T00:05:20.146Z,-0.18
2022-11-22T00:06:20.118Z,-0.18
2022-11-22T00:07:20.108Z,-0.16
2022-11-22T00:08:20.097Z,-0.16
2022-11-22T00:09:20.082Z,-0.18
2022-11-22T00:10:20.094Z,-0.15
2022-11-22T00:11:20.052Z,-0.15
2022-11-22T00:12:20.050Z,-0.13
2022-11-22T00:13:20.048Z,-0.13
2022-11-22T00:14:20.025Z,-0.09
2022-11-22T00:15:20.048Z,-0.11
2022-11-22T00:16:20.012Z,-0.09
2022-11-22T00:17:19.994Z,-0.09
2022-11-22T00:18:20.003Z,-0.09
2022-11-22T00:19:19.966Z,-0.09
2022-11-22T00:20:19.985Z,-0.06
2022-11-22T00:21:19.942Z,-0.06
2022-11-22T00:22:19.939Z,-0.06
2022-11-22T00:23:19.928Z,-0.05
2022-11-22T00:24:19.922Z,-0.05
2022-11-22T00:25:19.940Z,-0.04
2022-11-22T00:26:19.903Z,-0.01
2022-11-22T00:27:19.883Z,-0.01
2022-11-22T00:28:19.872Z,-0.01
2022-11-22T00:29:19.872Z,-0.01
2022-11-22T00:30:19.943Z,0.00
2022-11-22T00:31:19.836Z,0.00
2022-11-22T00:32:19.822Z,0.02
2022-11-22T00:33:19.818Z,0.02
2022-11-22T00:34:19.807Z,0.03
2022-11-22T00:35:19.830Z,0.03
2022-11-22T00:36:19.780Z,0.03
2022-11-22T00:37:19.770Z,0.05
2022-11-22T00:38:19.765Z,0.06
2022-11-22T00:39:19.752Z,0.06
2022-11-22T00:40:19.776Z,0.07
2022-11-22T00:41:19.731Z,0.07
2022-11-22T00:42:19.730Z,0.09
2022-11-22T00:43:19.713Z,0.09
2022-11-22T00:44:19.698Z,0.09
2022-11-22T00:45:19.712Z,0.09
2022-11-22T00:46:19.679Z,0.09
2022-11-22T00:47:19.712Z,0.09
2022-11-22T00:48:19.670Z,0.10
2022-11-22T00:49:19.644Z,0.09
2022-11-22T00:50:19.640Z,0.10
2022-11-22T00:51:19.633Z,0.12
2022-11-22T00:52:19.610Z,0.12
2022-11-22T00:53:19.596Z,0.12
2022-11-22T00:54:19.600Z,0.12
2022-11-22T00:55:19.604Z,0.13
2022-11-22T00:56:19.567Z,0.13
2022-11-22T00:57:19.572Z,0.13
2022-11-22T00:58:19.545Z,0.15
2022-11-22T00:59:19.557Z,0.15
2022-11-22T01:00:19.548Z,0.13
2022-11-22T01:01:19.613Z,0.13
2022-11-22T01:02:19.497Z,0.15
2022-11-22T01:03:19.493Z,0.15
2022-11-22T01:04:19.498Z,0.16
2022-11-22T01:05:19.481Z,0.15
2022-11-22T01:06:19.457Z,0.16
2022-11-22T01:07:19.482Z,0.16
2022-11-22T01:08:19.455Z,0.15
2022-11-22T01:09:19.420Z,0.18
2022-11-22T01:10:19.429Z,0.18
2022-11-22T01:11:19.403Z,0.18
2022-11-22T01:12:19.387Z,0.20
2022-11-22T01:13:19.383Z,0.21
2022-11-22T01:14:19.379Z,0.20
2022-11-22T01:15:19.418Z,0.21
2022-11-22T01:16:19.354Z,0.21
2022-11-22T01:17:19.347Z,0.21
2022-11-22T01:18:19.332Z,0.24
2022-11-22T01:19:19.327Z,0.24
2022-11-22T01:20:19.322Z,0.25
2022-11-22T01:21:19.292Z,0.27
2022-11-22T01:22:19.287Z,0.25
2022-11-22T01:23:19.288Z,0.28
2022-11-22T01:24:19.270Z,0.28
2022-11-22T01:25:19.266Z,0.28
2022-11-22T01:26:19.251Z,0.30
2022-11-22T01:27:19.226Z,0.30
2022-11-22T01:28:19.248Z,0.31
2022-11-22T01:29:19.205Z,0.31
2022-11-22T01:30:19.227Z,0.31
2022-11-22T01:31:19.201Z,0.31
2022-11-22T01:32:19.190Z,0.33
2022-11-22T01:33:19.163Z,0.33
2022-11-22T01:34:19.151Z,0.33
2022-11-22T01:35:19.157Z,0.34
2022-11-22T01:36:19.131Z,0.34
2022-11-22T01:37:19.160Z,0.33
2022-11-22T01:38:19.105Z,0.36
2022-11-22T01:39:19.105Z,0.36
2022-11-22T01:40:19.098Z,0.34
2022-11-22T01:41:19.076Z,0.36
2022-11-22T01:42:19.073Z,0.36
2022-11-22T01:43:19.054Z,0.38
2022-11-22T01:44:19.040Z,0.39
2022-11-22T01:45:19.056Z,0.39
2022-11-22T01:46:19.028Z,0.41
2022-11-22T01:47:19.007Z,0.39
2022-11-22T01:48:19.004Z,0.41
2022-11-22T01:49:18.993Z,0.39
2022-11-22T01:50:18.974Z,0.42
2022-11-22T01:51:18.996Z,0.45
2022-11-22T01:52:18.972Z,0.42
2022-11-22T01:53:18.942Z,0.43
2022-11-22T01:54:18.936Z,0.43
2022-11-22T01:55:18.916Z,0.43
2022-11-22T01:56:18.939Z,0.43
2022-11-22T01:57:18.890Z,0.43
2022-11-22T01:58:18.902Z,0.43
2022-11-22T01:59:18.889Z,0.45
2022-11-22T02:00:18.875Z,0.46
2022-11-22T02:01:18.914Z,0.45
2022-11-22T02:02:18.839Z,0.46
2022-11-22T02:03:18.845Z,0.46
2022-11-22T02:04:18.838Z,0.46
2022-11-22T02:05:18.824Z,0.46
2022-11-22T02:06:18.820Z,0.48
2022-11-22T02:07:18.843Z,0.48
2022-11-22T02:08:18.778Z,0.49
2022-11-22T02:09:18.768Z,0.48
2022-11-22T02:10:18.760Z,0.49
2022-11-22T02:11:18.768Z,0.51
2022-11-22T02:12:18.751Z,0.51
2022-11-22T02:13:18.731Z,0.51
2022-11-22T02:14:18.729Z,0.51
2022-11-22T02:15:18.712Z,0.51
2022-11-22T02:16:18.710Z,0.51
2022-11-22T02:17:18.692Z,0.49
2022-11-22T02:18:18.672Z,0.51
2022-11-22T02:19:18.664Z,0.51
2022-11-22T02:20:18.696Z,0.51
2022-11-22T02:21:18.670Z,0.51
2022-11-22T02:22:18.655Z,0.52
2022-11-22T02:23:18.630Z,0.52
2022-11-22T02:24:18.627Z,0.52
2022-11-22T02:25:18.604Z,0.52
2022-11-22T02:26:18.601Z,0.52
2022-11-22T02:27:18.586Z,0.53
2022-11-22T02:28:18.570Z,0.53
2022-11-22T02:29:18.566Z,0.53
2022-11-22T02:30:18.572Z,0.53
2022-11-22T02:31:18.564Z,0.52
2022-11-22T02:32:18.529Z,0.53
2022-11-22T02:33:18.522Z,0.53
2022-11-22T02:34:18.507Z,0.52
2022-11-22T02:35:18.530Z,0.53
2022-11-22T02:36:18.497Z,0.53
2022-11-22T02:37:18.486Z,0.53
2022-11-22T02:38:18.464Z,0.52
2022-11-22T02:39:19.447Z,0.52
2022-11-22T02:40:22.023Z,0.52
2022-11-22T02:41:18.459Z,0.53
2022-11-22T02:42:18.419Z,0.53
2022-11-22T02:43:18.409Z,0.52
2022-11-22T02:44:18.398Z,0.53
2022-11-22T02:45:18.379Z,0.53
2022-11-22T02:46:18.382Z,0.53
2022-11-22T02:47:18.356Z,0.52
2022-11-22T02:48:18.344Z,0.53
2022-11-22T02:49:18.362Z,0.53
2022-11-22T02:50:18.340Z,0.53
2022-11-22T02:51:18.328Z,0.53
2022-11-22T02:52:18.322Z,0.53
2022-11-22T02:53:18.302Z,0.52
2022-11-22T02:54:18.276Z,0.52
2022-11-22T02:55:18.271Z,0.53
2022-11-22T02:56:18.301Z,0.53
2022-11-22T02:57:18.272Z,0.57
2022-11-22T02:58:18.240Z,0.53
2022-11-22T02:59:18.224Z,0.53
2022-11-22T03:00:18.215Z,0.52
2022-11-22T03:01:18.290Z,0.53
2022-11-22T03:02:18.204Z,0.51
2022-11-22T03:03:18.189Z,0.52
2022-11-22T03:04:18.716Z,0.53
2022-11-22T03:05:18.162Z,0.51
2022-11-22T03:06:18.156Z,0.52
2022-11-22T03:07:18.171Z,0.51
2022-11-22T03:08:18.127Z,0.51
2022-11-22T03:09:18.135Z,0.52
2022-11-22T03:10:18.110Z,0.51
2022-11-22T03:11:18.111Z,0.51
2022-11-22T03:12:18.109Z,0.49
2022-11-22T03:13:18.068Z,0.49
2022-11-22T03:14:18.062Z,0.46
2022-11-22T03:15:18.053Z,0.49
2022-11-22T03:16:18.052Z,0.49
2022-11-22T03:17:18.042Z,0.48
2022-11-22T03:18:18.033Z,0.49
2022-11-22T03:19:18.008Z,0.49
2022-11-22T03:20:18.002Z,0.48
2022-11-22T03:21:18.015Z,0.51
2022-11-22T03:22:17.971Z,0.52
2022-11-22T03:23:17.993Z,0.49
2022-11-22T03:24:17.957Z,0.49
2022-11-22T03:25:17.951Z,0.49
2022-11-22T03:26:17.953Z,0.51
2022-11-22T03:27:17.929Z,0.49
2022-11-22T03:28:17.913Z,0.48
2022-11-22T03:29:17.892Z,0.48
2022-11-22T03:30:17.897Z,0.46
2022-11-22T03:31:17.927Z,0.48
2022-11-22T03:32:17.864Z,0.46
2022-11-22T03:33:17.861Z,0.48
2022-11-22T03:34:17.846Z,0.46
2022-11-22T03:35:17.836Z,0.49
2022-11-22T03:36:17.883Z,0.48
2022-11-22T03:37:17.833Z,0.48
2022-11-22T03:38:17.813Z,0.48
2022-11-22T03:39:17.837Z,0.46
2022-11-22T03:40:17.775Z,0.45
2022-11-22T03:41:17.795Z,0.46
2022-11-22T03:42:21.677Z,0.46
2022-11-22T03:43:17.737Z,0.48
2022-11-22T03:44:17.735Z,0.48
2022-11-22T03:45:17.719Z,0.48
2022-11-22T03:46:17.726Z,0.48
2022-11-22T03:47:17.708Z,0.48
2022-11-22T03:48:17.689Z,0.46
2022-11-22T03:49:17.692Z,0.46
2022-11-22T03:50:17.673Z,0.46
2022-11-22T03:51:17.680Z,0.48
2022-11-22T03:52:17.650Z,0.46
2022-11-22T03:53:17.632Z,0.46
2022-11-22T03:54:17.621Z,0.46
2022-11-22T03:55:17.612Z,0.45
2022-11-22T03:56:17.621Z,0.46
2022-11-22T03:57:17.594Z,0.46
2022-11-22T03:58:17.579Z,0.48
2022-11-22T03:59:17.564Z,0.46
2022-11-22T04:00:17.567Z,0.48
2022-11-22T04:01:17.614Z,0.48
2022-11-22T04:02:17.544Z,0.46
2022-11-22T04:03:17.531Z,0.46
2022-11-22T04:04:17.512Z,0.45
2022-11-22T04:05:17.503Z,0.45
2022-11-22T04:06:17.510Z,0.46
2022-11-22T04:07:17.504Z,0.46
2022-11-22T04:08:17.488Z,0.48
2022-11-22T04:09:17.543Z,0.48
2022-11-22T04:10:22.104Z,0.49
2022-11-22T04:11:17.481Z,0.48
2022-11-22T04:12:17.423Z,0.48
2022-11-22T04:13:17.417Z,0.51
2022-11-22T04:14:17.406Z,0.49
2022-11-22T04:15:17.413Z,0.51
2022-11-22T04:16:17.416Z,0.52
2022-11-22T04:17:17.374Z,0.51
2022-11-22T04:18:17.363Z,0.51
2022-11-22T04:19:17.360Z,0.51
2022-11-22T04:20:17.343Z,0.52
2022-11-22T04:21:17.343Z,0.52
2022-11-22T04:22:17.315Z,0.53
2022-11-22T04:23:23.894Z,0.53
2022-11-22T04:24:17.289Z,0.52
2022-11-22T04:25:17.280Z,0.52
2022-11-22T04:26:17.296Z,0.57
2022-11-22T04:27:17.263Z,0.57
2022-11-22T04:28:17.250Z,0.57
2022-11-22T04:29:17.235Z,0.53
2022-11-22T04:30:20.465Z,0.57
2022-11-22T04:31:17.233Z,0.53
2022-11-22T04:32:17.202Z,0.53
2022-11-22T04:33:17.188Z,0.57
2022-11-22T04:34:17.185Z,0.57
2022-11-22T04:35:17.180Z,0.58
2022-11-22T04:36:17.184Z,0.60
2022-11-22T04:37:17.152Z,0.60
2022-11-22T04:38:17.135Z,0.61
2022-11-22T04:39:17.127Z,0.61
2022-11-22T04:40:17.117Z,0.62
2022-11-22T04:41:17.112Z,0.64
2022-11-22T04:42:17.112Z,0.62
2022-11-22T04:43:17.087Z,0.62
2022-11-22T04:44:17.077Z,0.62
2022-11-22T04:45:17.066Z,0.64
2022-11-22T04:46:17.058Z,0.64
2022-11-22T04:47:17.071Z,0.65
2022-11-22T04:48:17.025Z,0.65
2022-11-22T04:49:17.022Z,0.68
2022-11-22T04:50:17.017Z,0.70
2022-11-22T04:51:16.997Z,0.70
2022-11-22T04:52:17.009Z,0.70
2022-11-22T04:53:16.994Z,0.71
2022-11-22T04:54:16.969Z,0.72
2022-11-22T04:55:16.955Z,0.72
2022-11-22T04:56:16.941Z,0.76
2022-11-22T04:57:16.947Z,0.78
2022-11-22T04:58:16.916Z,0.78
2022-11-22T04:59:16.910Z,0.82
2022-11-22T05:00:16.930Z,0.82
2022-11-22T05:01:16.919Z,0.83
2022-11-22T05:02:16.890Z,0.83
2022-11-22T05:03:16.863Z,0.86
2022-11-22T05:04:16.858Z,0.86
2022-11-22T05:05:16.844Z,0.86
2022-11-22T05:06:16.841Z,0.89
2022-11-22T05:07:16.911Z,0.89
2022-11-22T05:08:16.804Z,0.90
2022-11-22T05:09:16.799Z,0.90
2022-11-22T05:10:21.296Z,0.90
2022-11-22T05:11:16.787Z,0.90
2022-11-22T05:12:16.800Z,0.92
2022-11-22T05:13:16.756Z,0.92
2022-11-22T05:14:16.744Z,0.94
2022-11-22T05:15:16.734Z,0.96
2022-11-22T05:16:16.729Z,0.96
2022-11-22T05:17:16.727Z,0.97
2022-11-22T05:18:16.712Z,0.96
2022-11-22T05:19:16.691Z,0.96
2022-11-22T05:20:16.679Z,0.94
2022-11-22T05:21:16.673Z,0.94
2022-11-22T05:22:16.681Z,0.94
2022-11-22T05:23:16.645Z,0.96
2022-11-22T05:24:16.633Z,0.96
2022-11-22T05:25:19.242Z,0.96
2022-11-22T05:26:16.630Z,0.96
2022-11-22T05:27:16.614Z,0.96
2022-11-22T05:28:16.597Z,0.97
2022-11-22T05:29:16.579Z,0.97
2022-11-22T05:30:16.580Z,0.98
2022-11-22T05:31:16.553Z,0.98
2022-11-22T05:32:16.572Z,0.98
2022-11-22T05:33:16.537Z,1.00
2022-11-22T05:34:16.524Z,0.98
2022-11-22T05:35:16.520Z,1.00
2022-11-22T05:36:16.504Z,1.00
2022-11-22T05:37:16.507Z,1.01
2022-11-22T05:38:16.481Z,1.01
2022-11-22T05:39:16.468Z,1.00
2022-11-22T05:40:16.459Z,1.01
2022-11-22T05:41:16.459Z,1.03
2022-11-22T05:42:16.456Z,1.04
2022-11-22T05:43:16.427Z,1.04
2022-11-22T05:44:16.417Z,1.04
2022-11-22T05:45:16.417Z,1.06
2022-11-22T05:46:22.325Z,1.07
2022-11-22T05:47:16.405Z,1.08
2022-11-22T05:48:16.371Z,1.07
2022-11-22T05:49:16.386Z,1.12
2022-11-22T05:50:16.366Z,1.12
2022-11-22T05:51:16.358Z,1.12
2022-11-22T05:52:16.345Z,1.15
2022-11-22T05:53:16.317Z,1.14
2022-11-22T05:54:16.309Z,1.14
2022-11-22T05:55:16.292Z,1.16
2022-11-22T05:56:16.288Z,1.16
2022-11-22T05:57:16.307Z,1.16
2022-11-22T05:58:16.275Z,1.16
2022-11-22T05:59:16.264Z,1.18
2022-11-22T06:00:16.250Z,1.19
2022-11-22T06:01:16.242Z,1.19
2022-11-22T06:02:16.283Z,1.19
2022-11-22T06:03:16.210Z,1.19
2022-11-22T06:04:16.203Z,1.19
2022-11-22T06:05:16.217Z,1.21
2022-11-22T06:06:16.186Z,1.22
2022-11-22T06:07:16.285Z,1.22
2022-11-22T06:08:16.172Z,1.22
2022-11-22T06:09:16.144Z,1.24
2022-11-22T06:10:16.158Z,1.25
2022-11-22T06:11:16.124Z,1.24
2022-11-22T06:12:16.135Z,1.25
2022-11-22T06:13:16.111Z,1.25
2022-11-22T06:14:16.100Z,1.26
2022-11-22T06:15:16.089Z,1.26
2022-11-22T06:16:16.068Z,1.26
2022-11-22T06:17:16.079Z,1.26
2022-11-22T06:18:16.047Z,1.26
2022-11-22T06:19:16.052Z,1.26
2022-11-22T06:20:16.023Z,1.29
2022-11-22T06:21:16.006Z,1.28
2022-11-22T06:22:16.023Z,1.29
2022-11-22T06:23:15.993Z,1.29
2022-11-22T06:24:15.989Z,1.32
2022-11-22T06:25:15.968Z,1.32
2022-11-22T06:26:15.956Z,1.33
2022-11-22T06:27:15.963Z,1.32
2022-11-22T06:28:15.949Z,1.32
2022-11-22T06:29:15.926Z,1.33
2022-11-22T06:30:15.914Z,1.33
2022-11-22T06:31:15.901Z,1.32
2022-11-22T06:32:15.904Z,1.33
2022-11-22T06:33:15.878Z,1.33
2022-11-22T06:34:15.871Z,1.34
2022-11-22T06:35:15.854Z,1.34
2022-11-22T06:36:15.840Z,1.36
2022-11-22T06:37:15.847Z,1.36
2022-11-22T06:38:15.833Z,1.36
2022-11-22T06:39:15.820Z,1.37
2022-11-22T06:40:15.805Z,1.37
2022-11-22T06:41:15.792Z,1.36
2022-11-22T06:42:15.795Z,1.37
2022-11-22T06:43:15.783Z,1.37
2022-11-22T06:44:15.768Z,1.37
2022-11-22T06:45:15.755Z,1.37
2022-11-22T06:46:15.741Z,1.37
2022-11-22T06:47:15.746Z,1.37
2022-11-22T06:48:15.719Z,1.37
2022-11-22T06:49:15.707Z,1.39
2022-11-22T06:50:21.462Z,1.40
2022-11-22T06:51:15.695Z,1.42
2022-11-22T06:52:15.686Z,1.43
2022-11-22T06:53:32.683Z,1.43
2022-11-22T06:54:15.657Z,1.43
2022-11-22T06:55:42.512Z,1.43
2022-11-22T06:56:15.636Z,1.44
2022-11-22T06:57:15.630Z,1.44
2022-11-22T06:58:15.604Z,1.44
2022-11-22T06:59:15.602Z,1.44
2022-11-22T07:00:15.581Z,1.47
2022-11-22T07:01:15.612Z,1.47
2022-11-22T07:02:15.591Z,1.47
2022-11-22T07:03:15.554Z,1.47
2022-11-22T07:04:15.540Z,1.46
2022-11-22T07:05:25.481Z,1.47
2022-11-22T07:06:15.535Z,1.47
2022-11-22T07:07:15.547Z,1.47
2022-11-22T07:08:15.523Z,1.47
2022-11-22T07:09:15.480Z,1.50
2022-11-22T07:10:15.481Z,1.50
2022-11-22T07:11:15.468Z,1.47
2022-11-22T07:12:15.492Z,1.51
2022-11-22T07:13:15.462Z,1.51
2022-11-22T07:14:15.442Z,1.51
2022-11-22T07:15:15.439Z,1.52
2022-11-22T07:16:15.423Z,1.52
2022-11-22T07:17:15.417Z,1.54
2022-11-22T07:18:15.393Z,1.54
2022-11-22T07:19:15.387Z,1.54
2022-11-22T07:20:15.373Z,1.54
2022-11-22T07:21:15.362Z,1.55
2022-11-22T07:22:15.365Z,1.54
2022-11-22T07:23:15.337Z,1.55
2022-11-22T07:24:15.343Z,1.55
2022-11-22T07:25:15.315Z,1.55
2022-11-22T07:26:15.302Z,1.55
2022-11-22T07:27:15.335Z,1.57
2022-11-22T07:28:15.285Z,1.57
2022-11-22T07:29:15.282Z,1.58
2022-11-22T07:30:15.256Z,1.58
2022-11-22T07:31:15.244Z,1.57
2022-11-22T07:32:15.261Z,1.60
2022-11-22T07:33:15.232Z,1.58
2022-11-22T07:34:15.217Z,1.60
2022-11-22T07:35:15.208Z,1.60
2022-11-22T07:36:15.210Z,1.61
2022-11-22T07:37:15.207Z,1.61
2022-11-22T07:38:15.179Z,1.61
2022-11-22T07:39:15.163Z,1.61
2022-11-22T07:40:15.155Z,1.62
2022-11-22T07:41:15.138Z,1.62
2022-11-22T07:42:15.150Z,1.62
2022-11-22T07:43:15.119Z,1.64
2022-11-22T07:44:15.101Z,1.64
2022-11-22T07:45:15.096Z,1.65
2022-11-22T07:46:15.089Z,1.65
2022-11-22T07:47:19.808Z,1.65
2022-11-22T07:48:15.092Z,1.68
2022-11-22T07:49:15.056Z,1.65
2022-11-22T07:50:15.053Z,1.68
2022-11-22T07:51:15.032Z,1.69
2022-11-22T07:52:15.019Z,1.68
2022-11-22T07:53:15.034Z,1.69
2022-11-22T07:54:14.997Z,1.71
2022-11-22T07:55:14.990Z,1.71
2022-11-22T07:56:15.055Z,1.71
2022-11-22T07:57:14.963Z,1.72
2022-11-22T07:58:14.962Z,1.71
2022-11-22T07:59:14.949Z,1.71
2022-11-22T08:00:14.946Z,1.71
2022-11-22T08:01:14.960Z,1.72
2022-11-22T08:02:14.915Z,1.72
2022-11-22T08:03:17.777Z,1.72
2022-11-22T08:04:14.895Z,1.73
2022-11-22T08:05:14.885Z,1.75
2022-11-22T08:06:14.880Z,1.75
2022-11-22T08:07:14.915Z,1.76
2022-11-22T08:08:14.862Z,1.76
2022-11-22T08:09:15.324Z,1.76
2022-11-22T08:10:14.987Z,1.78
2022-11-22T08:11:14.814Z,1.78
2022-11-22T08:12:14.825Z,1.78
2022-11-22T08:13:14.800Z,1.78
2022-11-22T08:14:14.782Z,1.78
2022-11-22T08:15:14.760Z,1.78
2022-11-22T08:16:14.755Z,1.78
2022-11-22T08:17:14.755Z,1.79
2022-11-22T08:18:14.749Z,1.79
2022-11-22T08:19:14.740Z,1.79
2022-11-22T08:20:14.719Z,1.79
2022-11-22T08:21:14.705Z,1.78
2022-11-22T08:22:14.696Z,1.79
2022-11-22T08:23:14.702Z,1.79
2022-11-22T08:24:14.674Z,1.80
2022-11-22T08:25:14.668Z,1.80
2022-11-22T08:26:14.638Z,1.80
2022-11-22T08:27:14.639Z,1.80
2022-11-22T08:28:14.648Z,1.82
2022-11-22T08:29:14.793Z,1.82
2022-11-22T08:30:14.607Z,1.83
2022-11-22T08:31:14.590Z,1.83
2022-11-22T08:32:14.585Z,1.87
2022-11-22T08:33:14.580Z,1.87
2022-11-22T08:34:14.551Z,1.89
2022-11-22T08:35:14.543Z,1.87
2022-11-22T08:36:14.549Z,1.89
2022-11-22T08:37:14.522Z,1.89
2022-11-22T08:38:14.541Z,1.89
2022-11-22T08:39:14.523Z,1.89
2022-11-22T08:40:14.502Z,1.89
2022-11-22T08:41:14.515Z,1.90
2022-11-22T08:42:14.473Z,1.89
2022-11-22T08:43:14.484Z,1.90
2022-11-22T08:44:14.443Z,1.90
2022-11-22T08:45:14.434Z,1.90
2022-11-22T08:46:14.421Z,1.90
2022-11-22T08:47:14.415Z,1.90
2022-11-22T08:48:19.092Z,1.90
2022-11-22T08:49:14.409Z,1.91
2022-11-22T08:50:14.382Z,1.91
2022-11-22T08:51:14.376Z,1.93
2022-11-22T08:52:14.352Z,1.93
2022-11-22T08:53:14.359Z,1.93
2022-11-22T08:54:14.401Z,1.91
2022-11-22T08:55:14.347Z,1.93
2022-11-22T08:56:14.320Z,1.93
2022-11-22T08:57:14.333Z,1.93
2022-11-22T08:58:14.323Z,1.93
2022-11-22T08:59:14.357Z,1.94
2022-11-22T09:00:14.280Z,1.94
2022-11-22T09:01:14.413Z,1.93
2022-11-22T09:02:14.263Z,1.97
2022-11-22T09:03:14.260Z,1.97
2022-11-22T09:04:14.246Z,1.99
2022-11-22T09:05:14.221Z,1.99
2022-11-22T09:10:14.168Z,2.01
2022-11-22T09:11:14.166Z,2.01
2022-11-22T09:12:14.143Z,2.02
2022-11-22T09:13:14.146Z,2.01
2022-11-22T09:14:14.125Z,2.02
2022-11-22T09:15:14.114Z,2.02
2022-11-22T09:16:14.093Z,2.01
2022-11-22T09:17:17.890Z,2.01
2022-11-22T09:18:14.090Z,2.02
2022-11-22T09:19:14.068Z,2.02
2022-11-22T09:20:14.050Z,2.02
2022-11-22T09:21:14.036Z,2.04
2022-11-22T09:22:14.040Z,2.04
2022-11-22T09:23:14.039Z,2.04
2022-11-22T09:24:14.013Z,2.06
2022-11-22T09:25:14.002Z,2.06
2022-11-22T09:26:13.992Z,2.08
2022-11-22T09:27:13.969Z,2.08
2022-11-22T09:28:13.981Z,2.06
2022-11-22T09:29:13.954Z,2.04
2022-11-22T09:30:13.953Z,2.06
2022-11-22T09:31:13.928Z,2.08
2022-11-22T09:32:13.919Z,2.09
2022-11-22T09:33:13.929Z,2.10
2022-11-22T09:34:13.919Z,2.10
2022-11-22T09:35:13.895Z,2.13
2022-11-22T09:36:13.875Z,2.15
2022-11-22T09:37:13.867Z,2.17
2022-11-22T09:38:13.865Z,2.17
2022-11-22T09:39:13.843Z,2.20
2022-11-22T09:40:13.833Z,2.22
2022-11-22T09:41:13.821Z,2.22
2022-11-22T09:42:13.823Z,2.23
2022-11-22T09:43:13.822Z,2.26
2022-11-22T09:44:13.785Z,2.27
2022-11-22T09:45:13.813Z,2.30
2022-11-22T09:46:13.778Z,2.33
2022-11-22T09:47:14.766Z,2.34
2022-11-22T09:48:13.772Z,2.37
2022-11-22T09:49:13.731Z,2.40
2022-11-22T09:50:13.724Z,2.44
2022-11-22T09:51:13.705Z,2.46
2022-11-22T09:52:13.698Z,2.48
2022-11-22T09:53:13.712Z,2.49
2022-11-22T09:54:13.681Z,2.52
2022-11-22T09:55:13.668Z,2.53
2022-11-22T09:56:13.656Z,2.53
2022-11-22T09:57:13.637Z,2.53
2022-11-22T09:58:13.666Z,2.55
2022-11-22T09:59:13.624Z,2.55
2022-11-22T10:00:13.614Z,2.55
2022-11-22T10:01:13.659Z,2.55
2022-11-22T10:02:18.750Z,2.53
2022-11-22T10:03:13.627Z,2.55
2022-11-22T10:04:13.571Z,2.55
2022-11-22T10:05:13.550Z,2.56
2022-11-22T10:06:13.548Z,2.63
2022-11-22T10:07:13.590Z,2.63
2022-11-22T10:08:13.551Z,2.66
2022-11-22T10:09:13.509Z,2.66
2022-11-22T10:10:13.511Z,2.69
2022-11-22T10:11:13.491Z,2.73
2022-11-22T10:12:13.477Z,2.74
2022-11-22T10:13:13.487Z,2.81
2022-11-22T10:14:13.459Z,2.84
2022-11-22T10:15:13.454Z,2.87
2022-11-22T10:16:13.430Z,2.85
2022-11-22T10:17:13.426Z,2.89
2022-11-22T10:18:13.421Z,2.92
2022-11-22T10:19:13.423Z,2.94
2022-11-22T10:20:13.441Z,2.97
2022-11-22T10:21:13.380Z,2.98
2022-11-22T10:22:13.379Z,3.02
2022-11-22T10:23:13.377Z,3.06
2022-11-22T10:24:13.351Z,3.07
2022-11-22T10:25:13.344Z,3.09
2022-11-22T10:26:13.347Z,3.10
2022-11-22T10:27:13.316Z,3.16
2022-11-22T10:28:13.315Z,3.18
2022-11-22T10:29:13.301Z,3.21
2022-11-22T10:30:13.285Z,3.21
2022-11-22T10:31:13.277Z,3.24
2022-11-22T10:32:13.256Z,3.24
2022-11-22T10:33:13.265Z,3.21
2022-11-22T10:34:13.233Z,3.21
2022-11-22T10:35:13.251Z,3.21
2022-11-22T10:36:13.223Z,3.21
2022-11-22T10:37:13.204Z,3.23
2022-11-22T10:38:13.214Z,3.25
2022-11-22T10:39:13.189Z,3.27
2022-11-22T10:40:13.174Z,3.28
2022-11-22T10:41:13.177Z,3.25
2022-11-22T10:42:13.155Z,3.24
2022-11-22T10:43:13.158Z,3.27
2022-11-22T10:44:13.144Z,3.25
2022-11-22T10:45:13.109Z,3.28
2022-11-22T10:46:13.107Z,3.30
2022-11-22T10:47:13.108Z,3.31
2022-11-22T10:48:13.105Z,3.36
2022-11-22T10:49:13.082Z,3.39
2022-11-22T10:50:13.060Z,3.43
2022-11-22T10:51:13.055Z,3.44
2022-11-22T10:52:13.043Z,3.43
2022-11-22T10:53:13.047Z,3.39
2022-11-22T10:54:13.023Z,3.40
2022-11-22T10:55:13.006Z,3.42
2022-11-22T10:56:13.000Z,3.42
2022-11-22T10:57:13.050Z,3.42
2022-11-22T10:58:13.007Z,3.46
2022-11-22T10:59:12.974Z,3.47
2022-11-22T11:00:12.971Z,3.50
2022-11-22T11:01:13.006Z,3.52
2022-11-22T11:02:12.933Z,3.52
2022-11-22T11:03:12.940Z,3.52
2022-11-22T11:04:13.485Z,3.53
2022-11-22T11:05:12.916Z,3.54
2022-11-22T11:06:26.286Z,3.52
2022-11-22T11:07:13.236Z,3.52
2022-11-22T11:08:38.968Z,3.52
2022-11-22T11:10:03.020Z,3.50
2022-11-22T11:10:21.608Z,3.50
2022-11-22T11:11:12.847Z,3.52
2022-11-22T11:12:12.825Z,3.50
2022-11-22T11:13:12.824Z,3.50
2022-11-22T11:14:12.803Z,3.52
2022-11-22T11:15:12.792Z,3.50
2022-11-22T11:16:12.788Z,3.47
2022-11-22T11:17:12.768Z,3.47
2022-11-22T11:18:12.775Z,3.49
2022-11-22T11:19:12.757Z,3.46
2022-11-22T11:20:12.738Z,3.46
2022-11-22T11:21:12.726Z,3.44
2022-11-22T11:22:12.724Z,3.44
2022-11-22T11:23:15.460Z,3.44
2022-11-22T11:24:12.693Z,3.44
2022-11-22T11:25:12.699Z,3.46
2022-11-22T11:26:12.677Z,3.44
2022-11-22T11:27:12.658Z,3.43
2022-11-22T11:28:12.663Z,3.42
2022-11-22T11:29:12.638Z,3.43
2022-11-22T11:30:12.627Z,3.43
2022-11-22T11:31:12.606Z,3.44
2022-11-22T11:32:12.602Z,3.43
2022-11-22T11:33:12.626Z,3.46
2022-11-22T11:34:12.576Z,3.46
2022-11-22T11:35:12.572Z,3.49
2022-11-22T11:36:12.562Z,3.50
2022-11-22T11:37:12.549Z,3.52
2022-11-22T11:38:12.568Z,3.53
2022-11-22T11:39:12.539Z,3.58
2022-11-22T11:40:12.516Z,3.58
2022-11-22T11:41:12.504Z,3.61
2022-11-22T11:42:12.501Z,3.61
2022-11-22T11:43:12.503Z,3.64
2022-11-22T11:44:12.489Z,3.65
2022-11-22T11:45:12.470Z,3.68
2022-11-22T11:46:12.463Z,3.68
2022-11-22T11:47:12.424Z,3.71
2022-11-22T11:48:12.436Z,3.72
2022-11-22T11:49:12.416Z,3.72
2022-11-22T11:50:12.402Z,3.75
2022-11-22T11:51:12.396Z,3.76
2022-11-22T11:52:12.382Z,3.78
2022-11-22T11:53:12.379Z,3.79
2022-11-22T11:54:12.366Z,3.79
2022-11-22T11:55:12.347Z,3.80
2022-11-22T11:56:12.339Z,3.83
2022-11-22T11:57:12.335Z,3.88
2022-11-22T11:58:16.245Z,3.92
2022-11-22T11:59:12.322Z,3.94
2022-11-22T12:00:12.295Z,3.97
2022-11-22T12:01:12.307Z,3.96
2022-11-22T12:02:12.326Z,4.00
2022-11-22T12:03:12.267Z,4.00
2022-11-22T12:04:12.269Z,4.03
2022-11-22T12:05:12.261Z,4.03
2022-11-22T12:06:12.237Z,4.06
2022-11-22T12:07:12.287Z,4.01
2022-11-22T12:08:12.200Z,4.04
2022-11-22T12:09:12.210Z,4.03
2022-11-22T12:10:12.249Z,4.03
2022-11-22T12:11:12.182Z,4.04
2022-11-22T12:12:12.169Z,4.04
2022-11-22T12:13:12.157Z,4.06
2022-11-22T12:14:20.072Z,4.03
2022-11-22T12:15:12.528Z,4.03
2022-11-22T12:16:12.115Z,4.04
2022-11-22T12:17:12.109Z,4.08
2022-11-22T12:18:12.086Z,4.08
2022-11-22T12:19:12.103Z,4.08
2022-11-22T12:20:12.067Z,4.10
2022-11-22T12:21:12.066Z,4.14
2022-11-22T12:22:19.819Z,4.12
2022-11-22T12:23:12.050Z,4.14
2022-11-22T12:24:45.557Z,4.15
2022-11-22T12:48:22.570Z,4.21
2022-11-22T12:48:27.547Z,4.24
2022-11-22T12:48:32.541Z,4.18
2022-11-22T12:49:32.559Z,4.18
2022-11-22T12:50:32.538Z,4.15
2022-11-22T12:51:32.520Z,4.12
2022-11-22T12:52:32.496Z,4.14
2022-11-22T12:53:32.491Z,4.14
2022-11-22T12:54:32.830Z,4.15
2022-11-22T12:55:32.468Z,4.15
2022-11-22T12:56:33.878Z,4.15
2022-11-22T12:57:32.441Z,4.14
2022-11-22T12:58:32.451Z,4.15
2022-11-22T12:59:32.408Z,4.18
2022-11-22T13:00:32.426Z,4.19
2022-11-22T13:01:32.483Z,4.22
2022-11-22T13:02:32.377Z,4.21
2022-11-22T13:03:32.393Z,4.19
2022-11-22T13:04:32.766Z,4.19
2022-11-22T13:05:32.344Z,4.21
2022-11-22T13:06:32.352Z,4.19
2022-11-22T13:07:32.418Z,4.21
2022-11-22T13:08:32.337Z,4.19
2022-11-22T13:09:32.314Z,4.18
2022-11-22T13:10:32.293Z,4.19
2022-11-22T13:11:32.296Z,4.21
2022-11-22T13:12:32.274Z,4.21
2022-11-22T13:13:32.284Z,4.22
2022-11-22T13:14:32.618Z,4.22
2022-11-22T13:15:32.260Z,4.21
2022-11-22T13:16:32.219Z,4.21
2022-11-22T13:17:32.221Z,4.19
2022-11-22T13:18:32.227Z,4.19
2022-11-22T13:19:32.220Z,4.18
2022-11-22T13:20:32.192Z,4.18
2022-11-22T13:21:32.180Z,4.19
2022-11-22T13:22:32.171Z,4.19
2022-11-22T13:23:32.164Z,4.21
2022-11-22T13:24:32.562Z,4.24
2022-11-22T13:25:32.128Z,4.24
2022-11-22T13:26:32.121Z,4.26
2022-11-22T13:27:32.122Z,4.26
2022-11-22T13:28:32.103Z,4.28
2022-11-22T13:29:32.095Z,4.26
2022-11-22T13:30:32.082Z,4.28
2022-11-22T13:31:34.403Z,4.21
2022-11-22T13:32:32.064Z,4.21
2022-11-22T13:33:32.060Z,4.22
2022-11-22T13:34:32.392Z,4.22
2022-11-22T13:35:32.022Z,4.22
2022-11-22T13:36:32.015Z,4.26
2022-11-22T13:37:32.021Z,4.26
2022-11-22T13:38:31.999Z,4.28
2022-11-22T13:39:31.964Z,4.24
2022-11-22T13:40:31.953Z,4.21
2022-11-22T13:41:31.960Z,4.21
2022-11-22T13:42:31.948Z,4.19